createdAt,value
2019-02-08T00:00:44.313Z,3.90
2019-02-08T00:03:21.164Z,4.00
2019-02-08T00:05:57.945Z,4.00
2019-02-08T00:08:35.745Z,4.00
2019-02-08T00:11:12.520Z,4.00
2019-02-08T00:13:49.398Z,4.00
2019-02-08T00:16:26.163Z,4.10
2019-02-08T00:19:02.938Z,4.10
2019-02-08T00:21:39.822Z,4.10
2019-02-08T00:24:16.603Z,4.10
2019-02-08T00:26:53.382Z,4.10
2019-02-08T00:29:30.146Z,4.20
2019-02-08T00:32:06.867Z,4.20
2019-02-08T00:34:43.591Z,4.30
2019-02-08T00:37:20.685Z,4.20
2019-02-08T00:39:58.506Z,4.30
2019-02-08T00:42:35.570Z,4.30
2019-02-08T00:45:19.926Z,4.30
2019-02-08T00:47:56.686Z,4.30
2019-02-08T00:50:33.461Z,4.30
2019-02-08T00:53:10.249Z,4.40
2019-02-08T00:55:47.428Z,4.30
2019-02-08T00:58:24.197Z,4.30
2019-02-08T01:01:00.988Z,4.30
2019-02-08T01:03:38.875Z,4.30
2019-02-08T01:06:16.067Z,4.40
2019-02-08T01:08:52.845Z,4.40
2019-02-08T01:11:29.622Z,4.40
2019-02-08T01:14:06.391Z,4.40
2019-02-08T01:16:43.482Z,4.40
2019-02-08T01:19:20.142Z,4.40
2019-02-08T01:21:57.023Z,4.40
2019-02-08T01:24:33.808Z,4.40
2019-02-08T01:27:10.582Z,4.40
2019-02-08T01:29:47.244Z,4.40
2019-02-08T01:32:24.132Z,4.40
2019-02-08T01:35:00.795Z,4.40
2019-02-08T01:37:37.571Z,4.30
2019-02-08T01:40:20.493Z,4.30
2019-02-08T01:42:57.379Z,4.30
2019-02-08T01:45:34.429Z,4.30
2019-02-08T01:48:11.531Z,4.30
2019-02-08T01:50:48.318Z,4.30
2019-02-08T01:53:25.083Z,4.30
2019-02-08T01:56:01.860Z,4.30
2019-02-08T01:58:38.636Z,4.30
2019-02-08T02:01:15.520Z,4.40
2019-02-08T02:03:52.288Z,4.30
2019-02-08T02:06:29.576Z,4.30
2019-02-08T02:09:08.289Z,4.20
2019-02-08T02:11:44.977Z,4.20
2019-02-08T02:14:21.760Z,4.20
2019-02-08T02:16:58.537Z,4.20
2019-02-08T02:19:35.300Z,4.20
2019-02-08T02:22:11.972Z,4.20
2019-02-08T02:24:49.377Z,4.20
2019-02-08T02:27:26.150Z,4.20
2019-02-08T02:30:02.918Z,4.20
2019-02-08T02:32:39.907Z,4.20
2019-02-08T02:35:16.801Z,4.20
2019-02-08T02:37:53.555Z,4.20
2019-02-08T02:40:30.301Z,4.20
2019-02-08T02:43:07.309Z,4.20
2019-02-08T02:45:44.399Z,4.20
2019-02-08T02:48:21.158Z,4.20
2019-02-08T02:50:57.954Z,4.10
2019-02-08T02:53:34.826Z,4.20
2019-02-08T02:56:11.590Z,4.10
2019-02-08T02:58:48.364Z,4.10
2019-02-08T03:01:25.156Z,4.10
2019-02-08T03:04:01.919Z,4.10
2019-02-08T03:06:39.420Z,4.10
2019-02-08T03:09:17.216Z,4.10
2019-02-08T03:11:54.096Z,4.10
2019-02-08T03:14:30.865Z,4.10
2019-02-08T03:17:07.645Z,4.00
2019-02-08T03:19:44.426Z,4.00
2019-02-08T03:22:21.304Z,4.00
2019-02-08T03:24:58.082Z,4.00
2019-02-08T03:27:34.861Z,4.00
2019-02-08T03:30:22.910Z,3.90
2019-02-08T03:33:01.105Z,4.00
2019-02-08T03:35:37.763Z,3.90
2019-02-08T03:38:14.546Z,3.90
2019-02-08T03:40:51.328Z,3.90
2019-02-08T03:43:28.308Z,4.00
2019-02-08T03:46:05.087Z,3.90
2019-02-08T03:48:41.854Z,4.00
2019-02-08T03:51:18.631Z,3.90
2019-02-08T03:53:55.731Z,3.90
2019-02-08T03:56:32.483Z,3.90
2019-02-08T03:59:09.205Z,3.90
2019-02-08T04:01:45.941Z,3.90
2019-02-08T04:04:22.722Z,3.90
2019-02-08T04:06:59.478Z,3.90
2019-02-08T04:09:36.268Z,3.90
2019-02-08T04:12:13.038Z,3.80
2019-02-08T04:14:49.926Z,3.80
2019-02-08T04:17:26.698Z,3.80
2019-02-08T04:20:04.593Z,3.70
2019-02-08T04:22:41.368Z,3.80
2019-02-08T04:25:18.530Z,3.70
2019-02-08T04:27:55.608Z,3.70
2019-02-08T04:30:33.465Z,3.70
2019-02-08T04:33:10.212Z,3.60
2019-02-08T04:35:47.602Z,3.60
2019-02-08T04:38:24.383Z,3.60
2019-02-08T04:41:01.151Z,3.50
2019-02-08T04:43:37.930Z,3.50
2019-02-08T04:46:14.669Z,3.50
2019-02-08T04:48:51.391Z,3.40
2019-02-08T04:51:28.160Z,3.40
2019-02-08T04:54:04.931Z,3.40
2019-02-08T04:56:41.704Z,3.40
2019-02-08T04:59:18.482Z,3.40
2019-02-08T05:01:55.362Z,3.40
2019-02-08T05:04:32.140Z,3.40
2019-02-08T05:07:08.899Z,3.40
2019-02-08T05:09:45.684Z,3.40
2019-02-08T05:12:22.555Z,3.40
2019-02-08T05:14:59.338Z,3.50
2019-02-08T05:17:36.125Z,3.40
2019-02-08T05:20:19.358Z,3.40
2019-02-08T05:22:56.120Z,3.40
2019-02-08T05:25:32.881Z,3.40
2019-02-08T05:28:09.657Z,3.40
2019-02-08T05:30:46.542Z,3.40
2019-02-08T05:33:23.422Z,3.40
2019-02-08T05:36:00.206Z,3.40
2019-02-08T05:38:36.982Z,3.40
2019-02-08T05:41:13.845Z,3.40
2019-02-08T05:43:50.630Z,3.40
2019-02-08T05:46:27.394Z,3.50
2019-02-08T05:49:04.190Z,3.40
2019-02-08T05:51:41.072Z,3.40
2019-02-08T05:54:17.937Z,3.40
2019-02-08T05:56:54.713Z,3.40
2019-02-08T05:59:31.901Z,3.40
2019-02-08T06:02:08.778Z,4.10
2019-02-08T06:04:45.558Z,3.40
2019-02-08T06:07:22.229Z,3.40
2019-02-08T06:09:59.032Z,3.30
2019-02-08T06:12:36.802Z,3.30
2019-02-08T06:15:23.183Z,3.30
2019-02-08T06:17:59.983Z,3.30
2019-02-08T06:20:36.756Z,3.30
2019-02-08T06:23:13.532Z,3.20
2019-02-08T06:25:50.313Z,3.20
2019-02-08T06:28:27.274Z,4.00
2019-02-08T06:31:04.522Z,3.80
2019-02-08T06:33:41.352Z,3.10
2019-02-08T06:36:18.114Z,3.40
2019-02-08T06:38:54.785Z,3.00
2019-02-08T06:41:31.574Z,3.00
2019-02-08T06:44:08.339Z,2.90
2019-02-08T06:46:45.135Z,2.90
2019-02-08T06:49:21.832Z,2.90
2019-02-08T06:51:58.561Z,2.90
2019-02-08T06:54:35.348Z,2.90
2019-02-08T06:57:16.838Z,2.90
2019-02-08T06:59:55.245Z,2.90
2019-02-08T07:02:33.650Z,2.90
2019-02-08T07:05:19.244Z,2.90
2019-02-08T07:08:03.502Z,2.90
2019-02-08T07:10:45.079Z,2.90
2019-02-08T07:13:29.536Z,2.90
2019-02-08T07:16:13.777Z,2.90
2019-02-08T07:18:52.097Z,2.90
2019-02-08T07:21:36.368Z,3.00
2019-02-08T07:24:14.696Z,3.00
2019-02-08T07:27:02.607Z,3.10
2019-02-08T07:29:41.012Z,3.10
2019-02-08T07:32:31.718Z,3.20
2019-02-08T07:35:15.575Z,3.20
2019-02-08T07:38:06.049Z,4.00
2019-02-08T07:41:05.365Z,3.40
2019-02-08T07:43:43.757Z,3.40
2019-02-08T07:46:22.059Z,3.50
2019-02-08T07:49:00.389Z,3.60
2019-02-08T07:51:38.637Z,3.60
2019-02-08T07:54:19.622Z,3.70
2019-02-08T07:57:00.622Z,3.80
2019-02-08T07:59:54.759Z,3.80
2019-02-08T08:02:35.952Z,3.90
2019-02-08T08:05:14.262Z,3.90
2019-02-08T08:08:07.417Z,3.90
2019-02-08T08:10:45.691Z,4.00
2019-02-08T08:13:27.241Z,4.10
2019-02-08T08:16:11.629Z,4.20
2019-02-08T08:19:07.189Z,4.30
2019-02-08T08:21:48.458Z,4.40
2019-02-08T08:24:28.263Z,4.60
2019-02-08T08:27:09.289Z,4.70
2019-02-08T08:29:50.631Z,4.80
2019-02-08T08:32:29.580Z,4.90
2019-02-08T08:35:26.377Z,5.00
2019-02-08T08:38:28.472Z,5.10
2019-02-08T08:41:50.372Z,5.20
2019-02-08T08:44:59.916Z,5.20
2019-02-08T08:47:52.816Z,5.10
2019-02-08T08:50:52.208Z,5.10
2019-02-08T08:54:05.331Z,5.20
2019-02-08T08:57:04.393Z,5.20
2019-02-08T09:00:15.615Z,5.20
2019-02-08T09:03:25.186Z,5.20
2019-02-08T09:06:48.404Z,5.20
2019-02-08T09:09:57.892Z,5.30
2019-02-08T09:13:00.194Z,5.40
2019-02-08T09:15:53.725Z,5.40
2019-02-08T09:19:02.055Z,5.50
2019-02-08T09:22:01.104Z,5.50
2019-02-08T09:25:03.056Z,5.60
2019-02-08T09:28:15.681Z,5.70
2019-02-08T09:31:08.464Z,5.80
2019-02-08T09:34:22.750Z,5.90
2019-02-08T09:37:41.791Z,5.90
2019-02-08T09:40:39.320Z,6.00
2019-02-08T09:43:53.616Z,6.10
2019-02-08T09:46:51.172Z,6.10
2019-02-08T09:49:54.984Z,6.20
2019-02-08T09:52:54.278Z,6.20
2019-02-08T09:55:57.822Z,6.20
2019-02-08T09:59:00.363Z,6.30
2019-02-08T10:02:16.882Z,6.30
2019-02-08T10:05:25.498Z,6.40
2019-02-08T10:08:42.300Z,6.40
2019-02-08T10:11:40.168Z,6.40
2019-02-08T10:15:03.644Z,6.40
2019-02-08T10:18:36.226Z,6.40
2019-02-08T10:21:55.194Z,6.40
2019-02-08T10:24:54.911Z,6.40
2019-02-08T10:28:08.247Z,6.50
2019-02-08T10:31:35.809Z,6.50
2019-02-08T10:35:07.567Z,6.40
2019-02-08T10:38:23.971Z,6.50
2019-02-08T10:41:30.593Z,6.60
2019-02-08T10:44:50.849Z,6.60
2019-02-08T10:47:48.821Z,6.60
2019-02-08T10:51:19.353Z,6.70
2019-02-08T10:54:51.021Z,6.80
2019-02-08T10:57:55.440Z,6.80
2019-02-08T11:01:01.056Z,6.90
2019-02-08T11:04:09.514Z,6.90
2019-02-08T11:07:27.785Z,7.00
2019-02-08T11:10:32.990Z,7.00
2019-02-08T11:13:58.630Z,7.10
2019-02-08T11:16:56.483Z,7.10
2019-02-08T11:19:31.733Z,7.20
2019-02-08T11:22:09.934Z,7.20
2019-02-08T11:24:46.721Z,7.30
2019-02-08T11:27:23.705Z,7.20
2019-02-08T11:30:00.498Z,7.30
2019-02-08T11:32:43.333Z,7.30
2019-02-08T11:35:16.486Z,7.30
2019-02-08T11:37:54.278Z,7.30
2019-02-08T11:40:31.362Z,7.30
2019-02-08T11:43:08.142Z,7.30
2019-02-08T11:45:44.915Z,7.30
2019-02-08T11:48:21.683Z,7.30
2019-02-08T11:50:58.465Z,7.30
2019-02-08T11:53:35.129Z,7.30
2019-02-08T11:56:12.031Z,7.40
2019-02-08T11:58:48.682Z,7.50
2019-02-08T12:01:26.187Z,7.60
2019-02-08T12:04:02.964Z,7.60
2019-02-08T12:06:39.725Z,7.70
2019-02-08T12:09:18.131Z,7.70
2019-02-08T12:11:55.182Z,7.80
2019-02-08T12:14:32.199Z,7.80
2019-02-08T12:17:09.035Z,7.80
2019-02-08T12:19:45.868Z,7.80
2019-02-08T12:22:22.741Z,7.90
2019-02-08T12:24:59.518Z,7.90
2019-02-08T12:27:36.295Z,7.90
2019-02-08T12:30:26.590Z,7.90
2019-02-08T12:33:03.459Z,8.00
2019-02-08T12:35:40.234Z,7.90
2019-02-08T12:38:17.017Z,8.00
2019-02-08T12:40:54.301Z,8.00
2019-02-08T12:43:31.175Z,8.00
2019-02-08T12:46:07.961Z,8.00
2019-02-08T12:48:44.735Z,8.00
2019-02-08T12:51:21.499Z,8.10
2019-02-08T12:53:58.279Z,8.10
2019-02-08T12:56:35.055Z,8.10
2019-02-08T12:59:11.838Z,8.10
2019-02-08T13:01:48.704Z,8.10
2019-02-08T13:04:26.097Z,8.10
2019-02-08T13:07:02.767Z,8.10
2019-02-08T13:09:39.642Z,8.10
2019-02-08T13:12:17.259Z,8.20
2019-02-08T13:14:54.032Z,8.20
2019-02-08T13:17:31.802Z,8.20
2019-02-08T13:20:13.110Z,8.30
2019-02-08T13:22:49.887Z,8.30
2019-02-08T13:25:26.763Z,8.40
2019-02-08T13:28:03.533Z,8.40
2019-02-08T13:30:40.520Z,8.40
2019-02-08T13:33:17.585Z,8.50
2019-02-08T13:35:54.361Z,8.50
2019-02-08T13:38:31.145Z,8.40
2019-02-08T13:41:08.035Z,8.40
2019-02-08T13:43:44.798Z,8.40
2019-02-08T13:46:21.769Z,8.40
2019-02-08T13:48:58.444Z,8.50
2019-02-08T13:51:35.235Z,8.40
2019-02-08T13:54:12.032Z,8.40
2019-02-08T13:56:48.771Z,8.40
2019-02-08T13:59:26.578Z,8.40
2019-02-08T14:02:03.455Z,8.40
2019-02-08T14:04:40.229Z,8.30
2019-02-08T14:07:17.009Z,8.30
2019-02-08T14:09:53.790Z,8.30
2019-02-08T14:12:30.607Z,8.30
2019-02-08T14:15:10.707Z,8.30
2019-02-08T14:17:47.599Z,8.30
2019-02-08T14:20:29.349Z,8.20
2019-02-08T14:23:06.055Z,8.20
2019-02-08T14:25:42.942Z,8.20
2019-02-08T14:28:19.719Z,8.10
2019-02-08T14:30:56.489Z,8.10
2019-02-08T14:33:33.671Z,8.00
2019-02-08T14:36:10.452Z,7.90
2019-02-08T14:38:47.232Z,7.90
2019-02-08T14:41:24.004Z,7.90
2019-02-08T14:44:00.779Z,7.80
2019-02-08T14:46:39.188Z,7.70
2019-02-08T14:49:15.965Z,7.60
2019-02-08T14:51:52.629Z,7.50
2019-02-08T14:54:29.412Z,7.40
2019-02-08T14:57:07.745Z,7.30
2019-02-08T14:59:44.512Z,7.30
2019-02-08T15:02:21.368Z,7.30
2019-02-08T15:04:58.153Z,7.20
2019-02-08T15:07:35.252Z,7.20
2019-02-08T15:10:19.290Z,7.10
2019-02-08T15:12:56.161Z,7.10
2019-02-08T15:15:33.451Z,7.10
2019-02-08T15:18:10.229Z,7.00
2019-02-08T15:20:46.999Z,6.90
2019-02-08T15:23:23.883Z,6.80
2019-02-08T15:26:00.582Z,6.70
2019-02-08T15:28:37.419Z,6.70
2019-02-08T15:31:14.212Z,6.60
2019-02-08T15:33:50.997Z,6.50
2019-02-08T15:36:27.721Z,6.30
2019-02-08T15:39:06.063Z,6.20
2019-02-08T15:41:43.714Z,6.10
2019-02-08T15:44:20.425Z,6.00
2019-02-08T15:46:57.122Z,6.00
2019-02-08T15:49:33.847Z,5.90
2019-02-08T15:52:10.555Z,5.80
2019-02-08T15:54:47.687Z,5.70
2019-02-08T15:57:31.822Z,5.60
2019-02-08T16:00:03.094Z,5.50
2019-02-08T16:02:40.001Z,5.50
2019-02-08T16:05:20.891Z,5.40
2019-02-08T16:08:01.560Z,5.30
2019-02-08T16:10:41.870Z,5.20
2019-02-08T16:13:21.420Z,5.10
2019-02-08T16:15:58.337Z,5.10
2019-02-08T16:18:49.632Z,5.00
2019-02-08T16:21:26.358Z,5.00
2019-02-08T16:24:03.033Z,4.80
2019-02-08T16:26:39.779Z,4.80
2019-02-08T16:29:16.508Z,4.70
2019-02-08T16:31:53.190Z,4.60
2019-02-08T16:34:30.929Z,4.50
2019-02-08T16:37:07.643Z,4.40
2019-02-08T16:39:44.340Z,4.40
2019-02-08T16:42:21.047Z,4.30
2019-02-08T16:44:57.767Z,4.20
2019-02-08T16:47:34.631Z,4.20
2019-02-08T16:50:18.882Z,4.10
2019-02-08T16:52:55.643Z,4.10
2019-02-08T16:55:32.339Z,4.10
2019-02-08T16:58:10.482Z,4.00
2019-02-08T17:00:47.164Z,4.00
2019-02-08T17:03:23.970Z,3.90
2019-02-08T17:06:00.620Z,3.90
2019-02-08T17:08:37.666Z,3.90
2019-02-08T17:11:14.367Z,3.80
2019-02-08T17:13:51.146Z,3.80
2019-02-08T17:16:27.849Z,3.70
2019-02-08T17:19:04.561Z,3.70
2019-02-08T17:21:41.334Z,3.60
2019-02-08T17:24:18.010Z,3.60
2019-02-08T17:26:54.731Z,3.60
2019-02-08T17:29:31.508Z,3.60
2019-02-08T17:32:08.390Z,3.60
2019-02-08T17:34:45.062Z,3.50
2019-02-08T17:37:22.039Z,3.50
2019-02-08T17:39:58.866Z,3.50
2019-02-08T17:42:35.684Z,3.50
2019-02-08T17:45:16.087Z,3.40
2019-02-08T17:47:53.745Z,3.40
2019-02-08T17:50:30.725Z,3.40
2019-02-08T17:53:07.601Z,3.40
2019-02-08T17:55:44.364Z,3.40
2019-02-08T17:58:21.344Z,3.40
2019-02-08T18:00:59.062Z,3.30
2019-02-08T18:03:35.933Z,3.30
2019-02-08T18:06:12.703Z,3.30
2019-02-08T18:08:49.481Z,3.30
2019-02-08T18:11:26.657Z,3.30
2019-02-08T18:14:03.436Z,3.30
2019-02-08T18:16:40.222Z,3.20
2019-02-08T18:19:16.999Z,3.20
2019-02-08T18:21:53.873Z,3.20
2019-02-08T18:24:30.959Z,3.20
2019-02-08T18:27:07.735Z,3.20
2019-02-08T18:29:44.504Z,3.10
2019-02-08T18:32:22.397Z,3.10
2019-02-08T18:34:59.174Z,3.10
2019-02-08T18:37:35.948Z,3.10
2019-02-08T18:40:25.116Z,3.10
2019-02-08T18:43:02.113Z,3.00
2019-02-08T18:45:39.281Z,3.00
2019-02-08T18:48:16.254Z,3.60
2019-02-08T18:50:55.053Z,3.00
2019-02-08T18:53:31.793Z,2.90
2019-02-08T18:56:08.532Z,2.90
2019-02-08T18:58:45.261Z,2.90
2019-02-08T19:01:21.943Z,2.90
2019-02-08T19:04:00.636Z,2.90
2019-02-08T19:06:37.485Z,2.80
2019-02-08T19:09:14.188Z,2.80
2019-02-08T19:11:51.334Z,2.70
2019-02-08T19:14:28.047Z,2.70
2019-02-08T19:17:04.774Z,2.70
2019-02-08T19:19:41.502Z,2.60
2019-02-08T19:22:18.206Z,2.50
2019-02-08T19:24:54.974Z,2.60
2019-02-08T19:27:31.676Z,2.50
2019-02-08T19:30:13.516Z,2.40
2019-02-08T19:32:49.954Z,2.40
2019-02-08T19:35:26.492Z,2.40
2019-02-08T19:38:03.185Z,2.30
2019-02-08T19:40:49.342Z,2.30
2019-02-08T19:43:26.287Z,2.30
2019-02-08T19:46:03.003Z,2.30
2019-02-08T19:48:39.891Z,2.30
2019-02-08T19:51:16.705Z,2.20
2019-02-08T19:53:53.586Z,2.20
2019-02-08T19:56:30.872Z,2.20
2019-02-08T19:59:07.649Z,2.10
2019-02-08T20:01:45.239Z,2.10
2019-02-08T20:04:22.220Z,2.10
2019-02-08T20:06:58.988Z,2.10
2019-02-08T20:09:35.794Z,2.10
2019-02-08T20:12:12.644Z,2.00
2019-02-08T20:14:49.425Z,2.00
2019-02-08T20:17:26.307Z,2.00
2019-02-08T20:20:03.065Z,2.00
2019-02-08T20:22:39.951Z,2.00
2019-02-08T20:25:34.958Z,2.00
2019-02-08T20:28:11.840Z,2.00
2019-02-08T20:30:48.615Z,1.90
2019-02-08T20:33:26.340Z,1.90
2019-02-08T20:36:02.992Z,1.90
2019-02-08T20:38:39.670Z,1.80
2019-02-08T20:41:16.483Z,1.90
2019-02-08T20:43:53.242Z,1.90
2019-02-08T20:46:29.968Z,1.80
2019-02-08T20:49:07.674Z,1.80
2019-02-08T20:51:44.563Z,1.80
2019-02-08T20:54:21.333Z,1.80
2019-02-08T20:56:59.157Z,1.80
2019-02-08T20:59:35.952Z,1.80
2019-02-08T21:02:12.834Z,1.80
2019-02-08T21:04:49.525Z,1.80
2019-02-08T21:07:26.254Z,1.80
2019-02-08T21:10:03.268Z,1.70
2019-02-08T21:12:40.476Z,1.70
2019-02-08T21:15:19.957Z,1.70
2019-02-08T21:17:56.670Z,1.70
2019-02-08T21:20:33.484Z,1.60
2019-02-08T21:23:10.473Z,1.60
2019-02-08T21:25:52.267Z,1.60
2019-02-08T21:28:25.687Z,1.70
2019-02-08T21:31:02.535Z,1.70
2019-02-08T21:33:39.412Z,1.70
2019-02-08T21:36:16.190Z,1.70
2019-02-08T21:38:52.958Z,1.60
2019-02-08T21:41:29.749Z,1.60
2019-02-08T21:44:06.430Z,1.60
2019-02-08T21:46:43.227Z,1.60
2019-02-08T21:49:19.965Z,1.60
2019-02-08T21:51:56.843Z,1.60
2019-02-08T21:54:33.549Z,1.60
2019-02-08T21:57:10.258Z,1.60
2019-02-08T21:59:47.069Z,1.60
2019-02-08T22:02:24.007Z,1.60
2019-02-08T22:05:00.702Z,1.60
2019-02-08T22:07:37.477Z,1.60
2019-02-08T22:10:17.429Z,1.60
2019-02-08T22:12:54.208Z,1.70
2019-02-08T22:15:35.318Z,1.70
2019-02-08T22:18:13.745Z,1.70
2019-02-08T22:20:51.216Z,1.70
2019-02-08T22:23:28.082Z,1.70
2019-02-08T22:26:04.855Z,2.20
2019-02-08T22:28:41.633Z,1.70
2019-02-08T22:31:18.414Z,1.70
2019-02-08T22:33:55.189Z,1.60
2019-02-08T22:36:32.068Z,2.30
2019-02-08T22:39:09.124Z,1.60
2019-02-08T22:41:46.132Z,1.70
2019-02-08T22:44:22.910Z,1.70
2019-02-08T22:46:59.786Z,1.80
2019-02-08T22:49:36.562Z,1.80
2019-02-08T22:52:13.638Z,1.80
2019-02-08T22:54:50.405Z,1.80
2019-02-08T22:57:27.191Z,1.80
2019-02-08T23:00:05.098Z,1.80
2019-02-08T23:02:44.318Z,1.80
2019-02-08T23:05:21.110Z,1.90
2019-02-08T23:07:57.875Z,1.90
2019-02-08T23:10:34.649Z,1.90
2019-02-08T23:13:11.726Z,2.00
2019-02-08T23:15:48.629Z,2.00
2019-02-08T23:18:26.520Z,2.10
2019-02-08T23:21:03.703Z,2.10
2019-02-08T23:23:40.584Z,2.10
2019-02-08T23:26:17.353Z,2.10
2019-02-08T23:28:54.119Z,2.20
2019-02-08T23:31:30.997Z,2.20
2019-02-08T23:34:07.993Z,2.20
2019-02-08T23:36:44.757Z,2.20
2019-02-08T23:39:21.544Z,2.20
2019-02-08T23:41:58.406Z,2.20
2019-02-08T23:44:35.197Z,2.20
2019-02-08T23:47:11.973Z,2.20
2019-02-08T23:49:48.630Z,2.20
2019-02-08T23:52:25.513Z,2.20
2019-02-08T23:55:02.302Z,2.30
2019-02-08T23:57:39.490Z,2.20
